Time;durP1;ratioP1;P1;durP2;ratioP2;P2;SDS_P1;SDS_P2;PMS_P1;PMS_P2;Temp;Humidity;BMP_temperature;BMP_pressure;BME280_temperature;BME280_humidity;BME280_pressure;Samples;Min_cycle;Max_cycle;Signal;HPM_P1;HPM_P2
2022/07/01 00:00:09;;;;;;;24.00;17.30;;;;;;;15.39;90.78;101540.00;5027636;28;20042;-63
2022/07/01 00:02:34;;;;;;;26.20;17.90;;;;;;;15.31;90.85;101537.66;5026565;28;20506;-62
2022/07/01 00:05:00;;;;;;;25.65;17.95;;;;;;;15.33;90.86;101542.91;5027819;28;20037;-63
2022/07/01 00:07:25;;;;;;;32.10;21.52;;;;;;;15.23;91.01;101540.66;5027285;28;20099;-62
2022/07/01 00:09:50;;;;;;;35.80;22.05;;;;;;;15.26;91.67;101539.69;5019789;28;20030;-62
2022/07/01 00:12:16;;;;;;;39.50;22.05;;;;;;;15.23;91.93;101550.44;5026976;28;20029;-62
2022/07/01 00:14:42;;;;;;;40.78;22.88;;;;;;;15.18;91.66;101558.56;5025742;28;20550;-63
2022/07/01 00:17:07;;;;;;;36.05;24.33;;;;;;;15.23;92.40;101569.84;5027380;28;20036;-64
2022/07/01 00:19:33;;;;;;;37.17;24.63;;;;;;;15.27;92.50;101557.31;5008213;28;20034;-61
2022/07/01 00:21:58;;;;;;;39.80;23.08;;;;;;;15.30;91.89;101546.56;4988421;28;20018;-63
2022/07/01 00:24:24;;;;;;;43.20;25.65;;;;;;;15.24;92.23;101547.72;5000415;28;20488;-63
2022/07/01 00:26:49;;;;;;;40.22;25.65;;;;;;;15.23;91.86;101555.72;5027571;28;20400;-64
2022/07/01 00:29:14;;;;;;;36.40;23.40;;;;;;;15.23;91.83;101566.34;5021213;28;20025;-63
2022/07/01 00:31:40;;;;;;;46.83;27.58;;;;;;;15.20;92.10;101569.13;5007040;28;20117;-63
2022/07/01 00:34:05;;;;;;;46.45;26.55;;;;;;;15.23;91.88;101571.66;5004333;28;20104;-63
2022/07/01 00:36:30;;;;;;;37.88;24.20;;;;;;;15.21;91.69;101581.47;4988002;28;20042;-63
2022/07/01 00:38:57;;;;;;;52.13;26.05;;;;;;;15.19;91.79;101581.53;4987249;28;20030;-63
2022/07/01 00:41:22;;;;;;;41.95;27.23;;;;;;;15.16;91.90;101571.91;5006144;28;20053;-63
2022/07/01 00:43:48;;;;;;;40.55;26.85;;;;;;;15.12;91.73;101580.94;5006824;28;20715;-63
2022/07/01 00:46:13;;;;;;;44.80;26.08;;;;;;;15.03;92.00;101570.69;5005692;28;20548;-62
2022/07/01 00:48:39;;;;;;;45.67;25.63;;;;;;;15.11;91.89;101567.72;5007148;28;20021;-63
2022/07/01 00:51:04;;;;;;;43.55;24.00;;;;;;;15.05;91.98;101571.47;5018356;28;20395;-63
2022/07/01 00:53:30;;;;;;;40.40;23.23;;;;;;;15.05;91.99;101574.13;5026759;28;20147;-62
2022/07/01 00:55:56;;;;;;;40.35;24.10;;;;;;;14.97;92.56;101571.81;5025103;28;20030;-64
2022/07/01 00:58:21;;;;;;;38.28;23.90;;;;;;;14.91;92.46;101564.94;5026878;28;20038;-63
2022/07/01 01:00:47;;;;;;;36.42;22.20;;;;;;;14.87;92.52;101575.78;5024832;28;20047;-62
2022/07/01 01:03:12;;;;;;;35.88;23.15;;;;;;;14.86;92.53;101571.38;5026892;28;20030;-63
2022/07/01 01:05:38;;;;;;;38.83;22.40;;;;;;;14.85;92.52;101567.88;5025245;28;21260;-64
2022/07/01 01:08:04;;;;;;;43.97;22.73;;;;;;;14.83;92.63;101564.41;5025697;28;20059;-63
2022/07/01 01:10:30;;;;;;;39.30;23.17;;;;;;;14.84;92.25;101559.97;5023683;28;20033;-63
2022/07/01 01:12:57;;;;;;;37.80;21.50;;;;;;;14.77;92.79;101554.88;4997881;22;20054;-64
2022/07/01 01:15:22;;;;;;;38.45;21.67;;;;;;;14.71;92.72;101548.94;4986037;28;20476;-63
2022/07/01 01:17:48;;;;;;;34.25;20.23;;;;;;;14.67;92.55;101545.56;5003883;28;20030;-62
2022/07/01 01:20:17;;;;;;;33.53;19.48;;;;;;;14.63;92.84;101541.31;5005876;28;20514;-63
2022/07/01 01:22:44;;;;;;;36.95;20.42;;;;;;;14.64;92.66;101546.56;4990579;28;20033;-62
2022/07/01 01:25:09;;;;;;;43.40;21.15;;;;;;;14.65;92.43;101556.22;4986077;28;20113;-63
2022/07/01 01:27:34;;;;;;;40.00;22.17;;;;;;;14.61;92.93;101559.06;4986621;28;20165;-63
2022/07/01 01:30:00;;;;;;;39.42;21.85;;;;;;;14.59;93.00;101569.72;4986939;28;20057;-63
2022/07/01 01:32:25;;;;;;;39.63;21.65;;;;;;;14.59;92.82;101572.38;4985989;28;20469;-63
2022/07/01 01:34:50;;;;;;;40.63;21.75;;;;;;;14.56;92.96;101566.31;4986747;28;20048;-63
2022/07/01 01:37:16;;;;;;;36.38;21.35;;;;;;;14.54;93.10;101561.06;4983585;28;20478;-63
2022/07/01 01:39:41;;;;;;;45.10;21.60;;;;;;;14.53;93.15;101568.19;4967001;28;20035;-64
2022/07/01 01:42:07;;;;;;;35.78;20.27;;;;;;;14.52;92.93;101578.84;4967297;28;20473;-63
2022/07/01 01:44:33;;;;;;;45.15;23.27;;;;;;;14.50;93.05;101586.00;4983303;28;20386;-63
2022/07/01 01:46:58;;;;;;;44.33;23.42;;;;;;;14.48;93.95;101601.13;4985447;28;20037;-62
2022/07/01 01:49:23;;;;;;;40.42;21.63;;;;;;;14.48;93.68;101603.75;4998988;28;20061;-63
2022/07/01 01:51:49;;;;;;;40.13;21.77;;;;;;;14.55;93.63;101605.25;5003894;28;20160;-62
2022/07/01 01:54:14;;;;;;;39.92;20.92;;;;;;;14.56;93.46;101603.44;5005429;28;20416;-63
2022/07/01 01:56:39;;;;;;;46.80;21.92;;;;;;;14.53;93.84;101609.75;5002103;28;20508;-62
2022/07/01 01:59:05;;;;;;;37.78;20.27;;;;;;;14.60;93.75;101607.72;4987506;28;20026;-63
2022/07/01 02:01:30;;;;;;;35.60;19.95;;;;;;;14.57;93.61;101595.44;4984403;28;20022;-63
2022/07/01 02:03:56;;;;;;;37.28;19.15;;;;;;;14.58;93.54;101591.00;4986833;28;20030;-63
2022/07/01 02:06:22;;;;;;;40.65;20.92;;;;;;;14.53;93.66;101580.56;4984469;28;20022;-64
2022/07/01 02:08:48;;;;;;;35.20;19.42;;;;;;;14.56;93.70;101588.41;4986286;28;20114;-63
2022/07/01 02:11:13;;;;;;;35.72;19.15;;;;;;;14.58;93.86;101588.34;4985437;28;20042;-63
2022/07/01 02:13:39;;;;;;;35.95;18.95;;;;;;;14.60;93.95;101595.31;4986390;28;20035;-63
2022/07/01 02:16:04;;;;;;;34.75;18.85;;;;;;;14.63;94.13;101603.16;4984456;28;20034;-63
2022/07/01 02:18:32;;;;;;;36.13;18.63;;;;;;;14.64;93.99;101607.56;4997954;28;20034;-62
2022/07/01 02:20:57;;;;;;;34.28;17.83;;;;;;;14.68;94.40;101610.94;5005549;28;20057;-62
2022/07/01 02:23:23;;;;;;;37.50;18.30;;;;;;;14.75;94.45;101611.56;4993590;28;20058;-62
2022/07/01 02:25:48;;;;;;;34.72;18.40;;;;;;;14.76;94.63;101613.28;4986776;28;20475;-62
2022/07/01 02:28:13;;;;;;;32.88;17.45;;;;;;;14.80;94.31;101604.31;4985460;28;20428;-64
2022/07/01 02:30:39;;;;;;;33.60;18.13;;;;;;;14.77;94.17;101607.06;4985586;28;20557;-64
2022/07/01 02:33:05;;;;;;;33.03;18.35;;;;;;;14.78;93.81;101606.19;4979838;28;20385;-63
2022/07/01 02:35:32;;;;;;;32.22;17.65;;;;;;;14.71;93.68;101607.28;4973806;28;20133;-63
2022/07/01 02:37:57;;;;;;;33.22;16.80;;;;;;;14.70;93.55;101611.75;4971988;28;20034;-63
2022/07/01 02:40:22;;;;;;;30.50;15.70;;;;;;;14.70;93.79;101605.56;4985534;28;20030;-64
2022/07/01 02:42:48;;;;;;;28.92;16.52;;;;;;;14.75;93.67;101614.22;4988961;28;20023;-63
2022/07/01 02:45:13;;;;;;;33.05;16.33;;;;;;;14.70;93.81;101616.19;4998900;28;20036;-62
2022/07/01 02:47:40;;;;;;;32.22;16.38;;;;;;;14.75;93.53;101611.56;5008356;28;20025;-64
2022/07/01 02:50:07;;;;;;;31.50;15.15;;;;;;;14.70;93.54;101605.56;5009190;28;20029;-63
2022/07/01 02:52:36;;;;;;;30.15;15.32;;;;;;;14.68;93.56;101615.38;5009249;28;20025;-62
2022/07/01 02:55:06;;;;;;;30.50;16.33;;;;;;;14.64;93.47;101611.97;4994061;28;20125;-64
2022/07/01 02:57:31;;;;;;;30.13;15.63;;;;;;;14.68;93.61;101610.06;4989140;28;20362;-62
2022/07/01 02:59:57;;;;;;;26.33;15.38;;;;;;;14.65;93.28;101617.22;4988236;28;20037;-63
2022/07/01 03:02:22;;;;;;;29.55;14.32;;;;;;;14.62;93.00;101614.69;4988335;28;20122;-63
2022/07/01 03:04:49;;;;;;;24.92;13.93;;;;;;;14.60;93.10;101627.13;4971198;28;20479;-63
2022/07/01 03:07:15;;;;;;;24.27;13.75;;;;;;;14.56;92.96;101629.97;4988368;28;20026;-64
2022/07/01 03:09:41;;;;;;;24.58;13.45;;;;;;;14.51;93.19;101630.16;4988236;28;20469;-64
2022/07/01 03:12:27;;;;;;;31.85;15.07;;;;;;;14.45;93.17;101620.63;4993877;28;20068;-63
2022/07/01 03:14:56;;;;;;;25.42;14.73;;;;;;;14.42;93.13;101606.66;5007784;28;20502;-64
2022/07/01 03:17:25;;;;;;;29.77;14.25;;;;;;;14.36;93.16;101600.63;5007704;28;20415;-63
2022/07/01 03:19:52;;;;;;;34.15;15.90;;;;;;;14.33;93.59;101592.78;4993666;28;20303;-63
2022/07/01 03:22:18;;;;;;;34.63;15.70;;;;;;;14.31;93.46;101592.00;4990024;28;20026;-63
2022/07/01 03:24:44;;;;;;;27.08;15.73;;;;;;;14.30;93.73;101603.50;5007124;28;20021;-64
2022/07/01 03:27:09;;;;;;;29.25;14.15;;;;;;;14.32;93.33;101598.16;5007442;28;20030;-63
2022/07/01 03:29:35;;;;;;;23.25;13.38;;;;;;;14.30;93.51;101606.16;4989483;28;20033;-64
2022/07/01 03:32:00;;;;;;;27.20;14.75;;;;;;;14.28;93.59;101611.56;4986366;28;20022;-63
2022/07/01 03:34:25;;;;;;;24.45;13.63;;;;;;;14.28;93.57;101626.59;4988237;28;20042;-62
2022/07/01 03:36:51;;;;;;;28.38;13.18;;;;;;;14.27;93.84;101623.06;4987212;28;20085;-63
2022/07/01 03:39:16;;;;;;;27.85;14.38;;;;;;;14.24;93.72;101624.97;4988204;28;20077;-63
2022/07/01 03:41:41;;;;;;;25.73;13.77;;;;;;;14.24;93.83;101631.13;4988696;28;20081;-64
2022/07/01 03:44:07;;;;;;;26.55;15.00;;;;;;;14.31;93.90;101626.47;4987171;28;20157;-62
2022/07/01 03:46:34;;;;;;;24.98;12.98;;;;;;;14.32;93.75;101612.28;4988387;28;20081;-63
2022/07/01 03:48:59;;;;;;;26.65;13.15;;;;;;;14.30;93.97;101624.72;4984922;28;20026;-62
2022/07/01 03:51:24;;;;;;;26.58;12.85;;;;;;;14.34;93.97;101629.00;4983253;28;20031;-64
2022/07/01 03:56:34;;;;;;;29.42;14.45;;;;;;;14.37;94.25;101644.81;4992164;28;20053;-63
2022/07/01 03:58:59;;;;;;;31.55;14.10;;;;;;;14.42;94.29;101639.31;4999364;28;20026;-63
2022/07/01 04:01:24;;;;;;;26.23;13.95;;;;;;;14.42;94.34;101649.06;4989535;28;20015;-63
2022/07/01 04:03:50;;;;;;;31.60;13.80;;;;;;;14.42;94.51;101649.91;5004524;28;20103;-63
2022/07/01 04:06:15;;;;;;;27.63;13.75;;;;;;;14.48;94.49;101651.50;4991110;28;20473;-63
2022/07/01 04:08:41;;;;;;;26.33;13.88;;;;;;;14.49;94.17;101647.91;4997375;28;20030;-63
2022/07/01 04:11:08;;;;;;;25.67;14.10;;;;;;;14.54;94.04;101653.88;4996470;28;20072;-63
2022/07/01 04:13:34;;;;;;;24.67;12.85;;;;;;;14.52;93.91;101653.09;5003316;28;20029;-62
2022/07/01 04:16:00;;;;;;;26.98;13.70;;;;;;;14.58;93.81;101652.88;5005220;28;20052;-63
2022/07/01 04:18:26;;;;;;;27.58;13.27;;;;;;;14.52;94.07;101655.75;5004378;28;20101;-63
2022/07/01 04:23:35;;;;;;;24.20;13.68;;;;;;;14.57;94.22;101653.78;4999710;28;20036;-62
2022/07/01 04:26:01;;;;;;;23.92;12.60;;;;;;;14.61;94.17;101650.09;4992146;28;20393;-62
2022/07/01 04:28:27;;;;;;;25.88;13.38;;;;;;;14.66;94.38;101661.38;4999151;28;20033;-63
2022/07/01 04:30:52;;;;;;;24.50;12.95;;;;;;;14.72;94.28;101670.06;5000505;28;20034;-63
2022/07/01 04:33:17;;;;;;;25.15;11.70;;;;;;;14.80;93.77;101670.63;5005953;28;20113;-63
2022/07/01 04:35:42;;;;;;;21.70;11.70;;;;;;;14.86;93.79;101672.19;5000966;28;20101;-64
2022/07/01 04:38:08;;;;;;;26.05;11.82;;;;;;;14.93;93.47;101664.88;5000655;28;20034;-63
2022/07/01 04:40:34;;;;;;;24.00;11.38;;;;;;;14.92;93.39;101664.00;4996692;28;20029;-62
2022/07/01 04:42:59;;;;;;;20.40;10.40;;;;;;;14.98;92.87;101678.81;4991703;28;20085;-64
2022/07/01 04:45:24;;;;;;;26.73;10.02;;;;;;;15.07;92.67;101678.44;4976017;28;20070;-63
2022/07/01 04:47:50;;;;;;;20.13;9.60;;;;;;;15.14;92.58;101679.94;4970511;28;20058;-64
2022/07/01 04:50:15;;;;;;;17.33;8.85;;;;;;;15.05;92.71;101671.47;4972786;28;20042;-64
2022/07/01 04:52:40;;;;;;;21.33;8.85;;;;;;;15.19;92.39;101663.81;4971843;28;20065;-63
2022/07/01 04:55:06;;;;;;;22.35;9.35;;;;;;;15.21;91.55;101666.41;4977468;28;20058;-64
2022/07/01 04:57:32;;;;;;;17.00;8.32;;;;;;;15.28;91.01;101667.91;4971309;28;20785;-64
2022/07/01 04:59:57;;;;;;;20.00;7.82;;;;;;;15.36;91.00;101672.91;4982534;28;20069;-63
2022/07/01 05:02:22;;;;;;;19.38;7.97;;;;;;;15.36;90.83;101680.88;4988579;28;20030;-63
2022/07/01 05:04:47;;;;;;;21.80;8.10;;;;;;;15.35;90.92;101687.97;4990454;28;20026;-63
2022/07/01 05:07:28;;;;;;;15.80;8.05;;;;;;;15.40;90.69;101688.66;5003504;28;20120;-63
2022/07/01 05:09:55;;;;;;;22.25;7.75;;;;;;;15.40;90.71;101690.44;4999205;28;20022;-63
2022/07/01 05:12:21;;;;;;;12.90;7.45;;;;;;;15.43;90.46;101684.13;4985725;28;20072;-63
2022/07/01 05:14:46;;;;;;;14.18;6.85;;;;;;;15.53;90.02;101689.00;5004589;28;20569;-63
2022/07/01 05:17:12;;;;;;;20.00;6.57;;;;;;;15.62;89.62;101697.53;5006653;28;20034;-64
2022/07/01 05:22:21;;;;;;;13.18;7.43;;;;;;;15.57;89.58;101691.53;4972503;28;20042;-63
2022/07/01 05:24:46;;;;;;;17.85;7.00;;;;;;;15.64;89.18;101683.25;4968456;28;20031;-64
2022/07/01 05:27:12;;;;;;;14.90;6.40;;;;;;;15.76;88.53;101692.50;4982441;28;20030;-64
2022/07/01 05:29:37;;;;;;;12.38;6.43;;;;;;;15.86;88.49;101692.09;4986874;28;20018;-64
2022/07/01 05:32:03;;;;;;;16.00;6.82;;;;;;;15.98;87.81;101696.06;4986963;28;20030;-64
2022/07/01 05:34:28;;;;;;;13.10;6.40;;;;;;;16.08;87.27;101694.72;4986633;28;20136;-64
2022/07/01 05:36:53;;;;;;;13.55;6.10;;;;;;;16.12;86.57;101696.31;4987812;28;20022;-65
2022/07/01 05:39:19;;;;;;;11.57;6.35;;;;;;;15.96;86.69;101692.56;4986465;28;20026;-63
2022/07/01 05:41:45;;;;;;;11.85;6.03;;;;;;;16.18;86.37;101692.53;4986964;28;21342;-63
2022/07/01 05:44:10;;;;;;;13.00;5.53;;;;;;;16.29;85.49;101694.72;4983324;28;20045;-64
2022/07/01 05:46:36;;;;;;;11.35;5.30;;;;;;;16.44;85.05;101706.47;4985146;28;20026;-64
2022/07/01 05:49:02;;;;;;;12.20;5.10;;;;;;;16.56;84.56;101697.06;4988091;28;20091;-65
2022/07/01 05:51:27;;;;;;;14.98;6.30;;;;;;;16.71;83.94;101694.63;4985547;28;20026;-64
2022/07/01 05:53:53;;;;;;;11.70;5.28;;;;;;;16.82;83.28;101684.34;4985356;28;20105;-64
2022/07/01 05:56:18;;;;;;;10.25;5.20;;;;;;;16.69;83.11;101686.72;4986468;28;20400;-63
2022/07/01 05:58:44;;;;;;;15.02;5.72;;;;;;;16.63;83.73;101687.88;4986128;28;20132;-64
2022/07/01 06:01:09;;;;;;;10.80;5.03;;;;;;;16.67;83.46;101689.44;4985480;28;20121;-63
2022/07/01 06:03:34;;;;;;;15.20;5.20;;;;;;;16.72;82.87;101685.69;4987925;28;20381;-63
2022/07/01 06:06:00;;;;;;;14.70;4.90;;;;;;;16.65;83.02;101695.78;4986632;28;20014;-64
2022/07/01 06:08:25;;;;;;;11.38;5.03;;;;;;;16.64;83.28;101688.69;4981568;28;20380;-63
2022/07/01 06:10:51;;;;;;;13.73;5.90;;;;;;;16.56;83.30;101689.09;4982516;28;20495;-66
2022/07/01 06:13:16;;;;;;;12.18;5.50;;;;;;;16.57;83.45;101696.13;4990585;28;20476;-63
2022/07/01 06:15:41;;;;;;;14.15;5.00;;;;;;;16.60;83.91;101703.97;4989445;28;20576;-63
2022/07/01 06:18:07;;;;;;;12.38;4.88;;;;;;;16.52;83.40;101704.31;4989695;28;20027;-64
2022/07/01 06:20:32;;;;;;;15.45;5.20;;;;;;;16.51;83.97;101699.06;4990669;28;20018;-63
2022/07/01 06:22:58;;;;;;;17.45;5.07;;;;;;;16.41;84.70;101694.16;4992696;28;20027;-64
2022/07/01 06:25:23;;;;;;;11.32;4.35;;;;;;;16.46;84.12;101695.75;4990373;28;20030;-63
2022/07/01 06:27:48;;;;;;;19.48;4.82;;;;;;;16.49;84.72;101703.56;4989928;28;20054;-64
2022/07/01 06:30:14;;;;;;;9.85;4.45;;;;;;;16.62;84.22;101701.22;4988610;28;20521;-64
2022/07/01 06:32:40;;;;;;;9.88;4.18;;;;;;;16.73;83.87;101692.72;4989966;28;20106;-64
2022/07/01 06:35:06;;;;;;;15.60;4.05;;;;;;;16.71;83.87;101697.28;4988604;28;20030;-64
2022/07/01 06:37:33;;;;;;;10.57;3.83;;;;;;;16.85;83.01;101685.97;4989871;28;20062;-63
2022/07/01 06:40:06;;;;;;;10.63;3.95;;;;;;;16.81;82.71;101690.59;4989332;28;20109;-64
2022/07/01 06:42:31;;;;;;;11.50;3.90;;;;;;;16.87;81.67;101703.63;4988041;28;20061;-63
2022/07/01 06:44:57;;;;;;;11.98;4.22;;;;;;;16.95;81.42;101689.97;4989076;28;20050;-64
2022/07/01 06:47:23;;;;;;;13.18;3.75;;;;;;;17.06;81.33;101686.75;4988607;28;20084;-64
2022/07/01 06:49:48;;;;;;;9.82;4.07;;;;;;;16.93;81.48;101683.84;4988585;28;20030;-64
2022/07/01 06:52:14;;;;;;;14.60;3.40;;;;;;;17.18;80.69;101688.88;4989846;28;20050;-64
2022/07/01 06:54:39;;;;;;;11.20;3.50;;;;;;;17.34;80.99;101687.25;4987409;28;20063;-64
2022/07/01 06:57:05;;;;;;;12.50;3.38;;;;;;;17.38;78.96;101688.84;4989195;28;20113;-62
2022/07/01 06:59:31;;;;;;;11.40;3.20;;;;;;;17.53;78.63;101681.88;4989042;28;20688;-65
2022/07/01 07:01:56;;;;;;;10.23;2.83;;;;;;;17.79;77.84;101687.72;4989341;28;20049;-63
2022/07/01 07:04:22;;;;;;;20.10;2.97;;;;;;;18.08;77.05;101695.09;5006789;28;20105;-64
2022/07/01 07:06:47;;;;;;;11.07;2.92;;;;;;;18.37;76.33;101696.28;4988980;28;20369;-64
2022/07/01 07:09:12;;;;;;;8.75;2.58;;;;;;;18.62;75.15;101697.63;4989238;28;20023;-63
2022/07/01 07:11:38;;;;;;;9.32;2.25;;;;;;;18.88;73.84;101708.69;5006310;28;20137;-65
2022/07/01 07:14:03;;;;;;;7.93;2.50;;;;;;;18.98;72.83;101702.81;4988897;28;20038;-64
2022/07/01 07:16:28;;;;;;;8.35;2.22;;;;;;;19.15;71.75;101705.41;4997243;28;20030;-64
2022/07/01 07:18:54;;;;;;;10.43;2.53;;;;;;;19.30;71.86;101701.00;5009088;28;20037;-65
2022/07/01 07:21:19;;;;;;;6.15;2.25;;;;;;;19.24;72.36;101708.53;5007908;28;20026;-63
2022/07/01 07:23:44;;;;;;;7.75;1.70;;;;;;;19.11;69.09;101708.38;4995113;28;20049;-65
2022/07/01 07:26:10;;;;;;;7.07;1.85;;;;;;;18.99;69.61;101718.75;4989508;28;20473;-65
2022/07/01 07:28:36;;;;;;;10.68;1.95;;;;;;;18.53;70.33;101709.66;4989257;28;20551;-64
2022/07/01 07:31:01;;;;;;;10.13;1.85;;;;;;;18.66;68.95;101714.34;4987827;28;20074;-63
2022/07/01 07:33:26;;;;;;;8.98;2.20;;;;;;;18.69;69.58;101720.38;4988920;28;20256;-65
2022/07/01 07:35:52;;;;;;;12.50;1.67;;;;;;;18.52;67.53;101725.75;4987973;28;20073;-64
2022/07/01 07:38:17;;;;;;;5.65;1.60;;;;;;;18.50;68.42;101730.31;4988464;28;20490;-64
2022/07/01 07:40:43;;;;;;;7.38;1.35;;;;;;;18.44;68.58;101732.38;4988852;28;20457;-64
2022/07/01 07:43:08;;;;;;;7.13;1.80;;;;;;;18.40;69.13;101732.63;4987679;28;20026;-64
2022/07/01 07:45:34;;;;;;;6.25;1.50;;;;;;;18.35;69.62;101743.53;4988614;28;20033;-65
2022/07/01 07:48:00;;;;;;;7.53;2.22;;;;;;;18.76;69.15;101744.06;4986233;28;20124;-64
2022/07/01 07:50:26;;;;;;;6.63;1.58;;;;;;;18.99;67.72;101749.97;4988687;28;20022;-65
2022/07/01 07:52:51;;;;;;;6.72;1.60;;;;;;;19.15;66.76;101742.81;4988749;28;20513;-64
2022/07/01 07:55:16;;;;;;;10.25;1.73;;;;;;;19.23;67.12;101734.38;4970277;28;20073;-65
2022/07/01 07:57:42;;;;;;;6.63;1.63;;;;;;;19.55;66.94;101730.81;4988239;28;20034;-65
2022/07/01 08:00:09;;;;;;;5.25;1.33;;;;;;;19.50;64.45;101736.41;4988291;28;20018;-66
2022/07/01 08:02:35;;;;;;;3.88;1.25;;;;;;;19.33;64.57;101742.75;4969001;28;20031;-65
2022/07/01 08:05:00;;;;;;;6.93;1.67;;;;;;;19.39;64.76;101738.84;4967545;28;20130;-64
2022/07/01 08:07:26;;;;;;;7.20;1.60;;;;;;;19.66;63.78;101738.22;4972229;28;20442;-63
2022/07/01 08:09:52;;;;;;;9.93;1.60;;;;;;;19.93;64.63;101727.69;5008570;28;20293;-64
2022/07/01 08:12:17;;;;;;;4.03;1.27;;;;;;;20.25;62.71;101733.88;5007923;28;20062;-64
2022/07/01 08:14:43;;;;;;;8.52;1.85;;;;;;;20.25;62.27;101737.44;5004483;28;20021;-65
2022/07/01 08:17:08;;;;;;;4.78;1.60;;;;;;;20.23;62.22;101741.16;4988104;28;20035;-65
2022/07/01 08:19:33;;;;;;;6.15;1.67;;;;;;;20.20;62.62;101748.41;4987700;28;20017;-64
2022/07/01 08:21:59;;;;;;;7.70;1.30;;;;;;;19.79;61.80;101760.59;4986240;28;20465;-64
2022/07/01 08:24:24;;;;;;;4.60;1.30;;;;;;;19.52;63.16;101752.38;4967545;28;20386;-65
2022/07/01 08:26:50;;;;;;;9.00;1.58;;;;;;;19.25;64.26;101769.03;4968179;28;20445;-64
2022/07/01 08:29:15;;;;;;;5.45;1.02;;;;;;;18.82;65.61;101760.59;4971494;28;20030;-65
2022/07/01 08:31:40;;;;;;;8.30;1.50;;;;;;;18.83;65.75;101758.78;4988274;28;20412;-65
2022/07/01 08:34:06;;;;;;;3.17;1.20;;;;;;;19.09;65.14;101775.25;4986916;28;20030;-65
2022/07/01 08:36:32;;;;;;;4.65;0.88;;;;;;;19.36;63.63;101781.78;4984691;28;20062;-63
2022/07/01 08:38:57;;;;;;;3.72;1.10;;;;;;;19.62;63.51;101782.13;4988022;28;20030;-64
2022/07/01 08:41:22;;;;;;;4.82;1.50;;;;;;;19.89;62.92;101789.47;4986379;28;20076;-65
2022/07/01 08:43:48;;;;;;;4.75;1.45;;;;;;;19.70;63.90;101795.91;4987154;28;20121;-64
2022/07/01 08:46:13;;;;;;;5.65;1.23;;;;;;;19.44;63.26;101798.25;4987014;28;20384;-63
2022/07/01 08:48:45;;;;;;;4.10;1.00;;;;;;;19.28;65.04;101806.25;4986986;28;20496;-63
2022/07/01 08:51:11;;;;;;;3.80;1.20;;;;;;;19.27;65.06;101808.06;4986477;28;20057;-64
2022/07/01 08:53:37;;;;;;;6.20;1.25;;;;;;;19.21;65.96;101804.88;4988209;28;20038;-64
2022/07/01 08:58:51;;;;;;;4.53;1.27;;;;;;;19.08;68.01;101810.03;4986695;28;20053;-64
2022/07/01 09:01:20;;;;;;;5.20;1.30;;;;;;;19.37;67.85;101816.44;4986841;28;20368;-64
2022/07/01 09:03:46;;;;;;;3.88;1.50;;;;;;;19.58;65.72;101816.19;4986243;28;20038;-64
2022/07/01 09:06:14;;;;;;;6.78;1.50;;;;;;;19.72;63.44;101817.19;4986254;28;20092;-65
2022/07/01 09:08:40;;;;;;;4.85;1.10;;;;;;;19.65;64.17;101814.00;4986343;28;20101;-65
2022/07/01 09:11:16;;;;;;;4.35;1.27;;;;;;;19.72;63.70;101823.41;4987089;28;20053;-64
2022/07/01 09:13:42;;;;;;;7.07;1.50;;;;;;;19.65;64.31;101814.88;4987162;28;20092;-65
2022/07/01 09:16:15;;;;;;;7.60;1.65;;;;;;;19.67;63.83;101823.69;4984844;28;20385;-65
2022/07/01 09:18:40;;;;;;;6.60;1.35;;;;;;;19.67;64.26;101810.31;4985652;28;20034;-64
2022/07/01 09:21:13;;;;;;;4.88;1.40;;;;;;;19.80;64.18;101815.81;4987311;28;20114;-65
2022/07/01 09:23:39;;;;;;;4.68;1.55;;;;;;;19.64;65.08;101807.81;4986349;28;20026;-64
2022/07/01 09:26:04;;;;;;;6.38;1.52;;;;;;;20.04;63.91;101814.47;4984468;28;20033;-65
2022/07/01 09:28:29;;;;;;;4.50;1.15;;;;;;;20.63;60.77;101802.97;4987169;28;20023;-64
2022/07/01 09:30:57;;;;;;;6.22;1.73;;;;;;;20.86;61.39;101816.72;4985310;28;20105;-64
2022/07/01 09:33:28;;;;;;;7.25;1.63;;;;;;;20.79;61.53;101813.56;4985720;28;20358;-65
2022/07/01 09:35:55;;;;;;;5.20;1.60;;;;;;;20.50;60.66;101818.06;4986504;28;20057;-64
2022/07/01 09:38:24;;;;;;;5.80;1.60;;;;;;;20.20;62.81;101834.03;4983118;28;20520;-64
2022/07/01 09:41:00;;;;;;;;;;;;;;;19.95;63.66;101823.88;4989677;28;20034;-67
2022/07/01 09:43:28;;;;;;;8.10;1.67;;;;;;;19.55;65.24;101821.69;4983738;28;19924;-64
2022/07/01 09:46:08;;;;;;;6.95;1.30;;;;;;;19.42;64.01;101826.88;4985661;28;20038;-65
2022/07/01 09:48:33;;;;;;;6.20;1.80;;;;;;;19.17;64.41;101826.41;5009377;28;20072;-64
2022/07/01 09:51:03;;;;;;;9.45;1.67;;;;;;;19.17;63.43;101833.56;4999320;28;20062;-65
2022/07/01 09:53:29;;;;;;;7.72;1.92;;;;;;;19.30;63.85;101836.44;4986828;28;20432;-65
2022/07/01 09:55:54;;;;;;;5.13;1.35;;;;;;;19.47;63.05;101834.63;4990230;28;20143;-63
2022/07/01 09:58:20;;;;;;;9.15;1.88;;;;;;;19.63;63.31;101834.63;4987971;28;20065;-64
2022/07/01 10:00:46;;;;;;;6.57;1.58;;;;;;;19.68;63.16;101838.75;4988856;28;20030;-63
2022/07/01 10:03:12;;;;;;;7.70;1.58;;;;;;;19.58;63.87;101840.22;4988496;28;20022;-64
2022/07/01 10:05:42;;;;;;;7.63;1.70;;;;;;;19.84;63.48;101835.22;4988927;28;20030;-65
2022/07/01 10:08:20;;;;;;;8.52;1.60;;;;;;;20.01;62.49;101838.72;4971545;28;20037;-66
2022/07/01 10:10:57;;;;;;;6.22;1.92;;;;;;;19.97;61.98;101845.19;4988194;28;20496;-63
2022/07/01 10:13:25;;;;;;;8.65;1.63;;;;;;;19.60;63.28;101859.72;4989714;28;20027;-63
2022/07/01 10:15:51;;;;;;;4.97;1.63;;;;;;;19.66;63.75;101858.53;4985533;28;20049;-64
2022/07/01 10:18:26;;;;;;;8.98;1.50;;;;;;;19.82;64.00;101850.47;4983393;28;20296;-63
2022/07/01 10:20:54;;;;;;;9.40;1.50;;;;;;;20.16;61.10;101848.56;4989409;28;20034;-65
2022/07/01 10:23:21;;;;;;;5.60;1.50;;;;;;;20.54;60.73;101851.72;4988973;28;20018;-64
2022/07/01 10:25:52;;;;;;;4.95;1.50;;;;;;;20.65;60.52;101857.25;4986966;28;20377;-66
2022/07/01 10:28:29;;;;;;;9.73;1.67;;;;;;;20.45;60.30;101861.16;4979325;28;20027;-65
2022/07/01 10:31:07;;;;;;;6.15;1.40;;;;;;;20.09;61.11;101871.25;4988910;28;20452;-64
2022/07/01 10:33:43;;;;;;;7.10;1.60;;;;;;;19.99;61.64;101864.69;4990558;28;20018;-65
2022/07/01 10:36:33;;;;;;;5.22;1.52;;;;;;;20.16;61.74;101869.06;4987596;28;20081;-65
2022/07/01 10:39:03;;;;;;;6.60;1.60;;;;;;;20.11;61.84;101866.69;4991418;28;20038;-64
2022/07/01 10:41:53;;;;;;;7.07;1.50;;;;;;;20.20;61.04;101866.13;4990707;28;20113;-64
2022/07/01 10:44:20;;;;;;;6.05;1.55;;;;;;;20.55;60.10;101858.78;4988669;28;20030;-65
2022/07/01 10:46:57;;;;;;;4.43;1.40;;;;;;;21.10;58.86;101853.69;4989949;28;20073;-64
2022/07/01 10:49:34;;;;;;;4.35;1.52;;;;;;;21.71;55.54;101849.84;4991870;28;20030;-64
2022/07/01 10:52:00;;;;;;;5.68;1.25;;;;;;;22.03;53.46;101844.19;4989293;28;20473;-65
2022/07/01 10:54:34;;;;;;;5.25;1.50;;;;;;;22.43;51.49;101837.09;4989626;28;20117;-64
2022/07/01 10:57:24;;;;;;;4.93;1.20;;;;;;;22.94;47.85;101836.25;4988124;28;20033;-64
2022/07/01 10:59:49;;;;;;;7.15;1.40;;;;;;;22.99;46.04;101849.34;4988790;28;20030;-64
2022/07/01 11:02:28;;;;;;;6.20;1.35;;;;;;;22.68;46.17;101836.28;4996060;28;20717;-64
2022/07/01 11:04:57;;;;;;;2.92;0.93;;;;;;;22.96;45.08;101846.88;5007008;28;20029;-65
2022/07/01 11:07:27;;;;;;;4.13;1.25;;;;;;;23.20;44.26;101844.28;4988098;28;20529;-65
2022/07/01 11:09:53;;;;;;;2.33;0.75;;;;;;;23.31;44.06;101845.31;4988297;28;20034;-66
2022/07/01 11:12:22;;;;;;;4.60;1.00;;;;;;;23.10;44.31;101837.84;4987675;28;20078;-67
2022/07/01 11:14:47;;;;;;;;;;;;;;;23.09;45.56;101844.19;4986636;28;20697;-64
2022/07/01 11:17:12;;;;;;;4.23;1.20;;;;;;;23.13;44.89;101844.81;4983433;28;19952;-64
2022/07/01 11:19:37;;;;;;;4.78;1.42;;;;;;;22.79;44.98;101850.78;4985336;28;20321;-64
2022/07/01 11:22:05;;;;;;;9.25;1.70;;;;;;;22.79;44.84;101856.97;4988376;28;20105;-63
2022/07/01 11:24:30;;;;;;;5.93;1.17;;;;;;;22.50;46.00;101856.31;4988631;28;20030;-65